sensor_id;sensor_type;location;lat;lon;timestamp;pressure;altitude;pressure_sealevel;temperature;humidity
11395;BME280;5753;54.402;10.220;2023-01-06T00:01:33;101791.63;;;15.01;49.02
11395;BME280;5753;54.402;10.220;2023-01-06T00:03:59;101784.19;;;15.27;48.61
11395;BME280;5753;54.402;10.220;2023-01-06T00:06:27;101791.19;;;15.34;48.62
11395;BME280;5753;54.402;10.220;2023-01-06T00:08:55;101793.22;;;14.90;49.60
11395;BME280;5753;54.402;10.220;2023-01-06T00:11:22;101788.22;;;15.05;49.26
11395;BME280;5753;54.402;10.220;2023-01-06T00:13:48;101784.59;;;14.34;51.68
11395;BME280;5753;54.402;10.220;2023-01-06T00:16:16;101777.00;;;15.08;50.56
11395;BME280;5753;54.402;10.220;2023-01-06T00:18:43;101770.88;;;15.01;50.75
11395;BME280;5753;54.402;10.220;2023-01-06T00:21:11;101760.84;;;14.64;51.96
11395;BME280;5753;54.402;10.220;2023-01-06T00:23:38;101756.16;;;14.40;52.49
11395;BME280;5753;54.402;10.220;2023-01-06T00:26:05;101747.44;;;14.95;51.26
11395;BME280;5753;54.402;10.220;2023-01-06T00:28:33;101746.66;;;15.04;51.70
11395;BME280;5753;54.402;10.220;2023-01-06T00:31:05;101748.13;;;14.80;51.63
11395;BME280;5753;54.402;10.220;2023-01-06T00:33:31;101742.13;;;14.27;52.69
11395;BME280;5753;54.402;10.220;2023-01-06T00:35:58;101728.28;;;14.87;51.44
11395;BME280;5753;54.402;10.220;2023-01-06T00:38:24;101738.59;;;14.79;52.15
11395;BME280;5753;54.402;10.220;2023-01-06T00:40:51;101721.47;;;14.97;52.22
11395;BME280;5753;54.402;10.220;2023-01-06T00:43:17;101724.22;;;15.09;51.62
11395;BME280;5753;54.402;10.220;2023-01-06T00:45:43;101713.63;;;14.89;52.54
11395;BME280;5753;54.402;10.220;2023-01-06T00:48:09;101708.34;;;14.83;52.37
11395;BME280;5753;54.402;10.220;2023-01-06T00:50:35;101711.53;;;14.05;54.71
11395;BME280;5753;54.402;10.220;2023-01-06T00:53:01;101704.28;;;15.05;52.12
11395;BME280;5753;54.402;10.220;2023-01-06T00:55:27;101705.31;;;14.49;54.07
11395;BME280;5753;54.402;10.220;2023-01-06T00:57:55;101699.19;;;14.44;53.85
11395;BME280;5753;54.402;10.220;2023-01-06T01:00:21;101689.25;;;14.78;53.64
11395;BME280;5753;54.402;10.220;2023-01-06T01:02:48;101691.06;;;14.22;55.02
11395;BME280;5753;54.402;10.220;2023-01-06T01:05:14;101685.31;;;14.42;55.50
11395;BME280;5753;54.402;10.220;2023-01-06T01:07:40;101688.44;;;14.82;53.81
11395;BME280;5753;54.402;10.220;2023-01-06T01:10:07;101688.84;;;13.90;56.43
11395;BME280;5753;54.402;10.220;2023-01-06T01:12:33;101679.00;;;14.90;54.49
11395;BME280;5753;54.402;10.220;2023-01-06T01:14:59;101673.56;;;14.08;56.61
11395;BME280;5753;54.402;10.220;2023-01-06T01:17:29;101672.97;;;14.91;54.90
11395;BME280;5753;54.402;10.220;2023-01-06T01:19:56;101665.00;;;14.76;54.33
11395;BME280;5753;54.402;10.220;2023-01-06T01:22:24;101656.97;;;14.56;55.34
11395;BME280;5753;54.402;10.220;2023-01-06T01:24:50;101657.81;;;14.55;55.28
11395;BME280;5753;54.402;10.220;2023-01-06T01:27:17;101645.59;;;15.21;54.00
11395;BME280;5753;54.402;10.220;2023-01-06T01:29:43;101646.25;;;15.01;54.30
11395;BME280;5753;54.402;10.220;2023-01-06T01:32:10;101646.53;;;13.93;57.12
11395;BME280;5753;54.402;10.220;2023-01-06T01:34:36;101643.72;;;14.36;56.63
11395;BME280;5753;54.402;10.220;2023-01-06T01:37:02;101648.06;;;15.10;54.79
11395;BME280;5753;54.402;10.220;2023-01-06T01:39:29;101638.31;;;14.88;55.40
11395;BME280;5753;54.402;10.220;2023-01-06T01:41:56;101641.44;;;14.59;56.86
11395;BME280;5753;54.402;10.220;2023-01-06T01:50:22;101632.66;;;15.24;55.26
11395;BME280;5753;54.402;10.220;2023-01-06T01:52:54;101632.28;;;14.89;56.16
11395;BME280;5753;54.402;10.220;2023-01-06T01:55:22;101619.94;;;14.68;56.64
11395;BME280;5753;54.402;10.220;2023-01-06T02:00:23;101604.88;;;15.15;55.54
11395;BME280;5753;54.402;10.220;2023-01-06T02:02:49;101604.88;;;15.17;55.69
11395;BME280;5753;54.402;10.220;2023-01-06T02:05:17;101608.00;;;14.85;56.76
11395;BME280;5753;54.402;10.220;2023-01-06T02:07:45;101610.75;;;15.00;56.82
11395;BME280;5753;54.402;10.220;2023-01-06T02:10:15;101604.69;;;14.98;56.82
11395;BME280;5753;54.402;10.220;2023-01-06T02:12:42;101584.00;;;15.07;56.44
11395;BME280;5753;54.402;10.220;2023-01-06T02:15:20;101585.47;;;15.78;54.37
11395;BME280;5753;54.402;10.220;2023-01-06T02:20:58;101571.13;;;15.18;56.96
11395;BME280;5753;54.402;10.220;2023-01-06T02:24:05;101561.53;;;14.31;59.11
11395;BME280;5753;54.402;10.220;2023-01-06T02:40:09;101535.66;;;15.19;58.50
11395;BME280;5753;54.402;10.220;2023-01-06T02:43:04;101530.19;;;14.91;59.38
11395;BME280;5753;54.402;10.220;2023-01-06T02:51:24;101519.53;;;15.61;57.48
11395;BME280;5753;54.402;10.220;2023-01-06T02:56:24;101505.09;;;14.90;60.04
11395;BME280;5753;54.402;10.220;2023-01-06T03:00:00;101507.28;;;15.52;58.85
11395;BME280;5753;54.402;10.220;2023-01-06T03:01:53;101509.84;;;15.46;58.43
11395;BME280;5753;54.402;10.220;2023-01-06T03:04:25;101499.69;;;15.80;57.55
11395;BME280;5753;54.402;10.220;2023-01-06T03:06:55;101500.28;;;15.37;58.79
11395;BME280;5753;54.402;10.220;2023-01-06T03:09:26;101505.06;;;14.87;60.91
11395;BME280;5753;54.402;10.220;2023-01-06T03:11:53;101492.06;;;14.84;60.88
11395;BME280;5753;54.402;10.220;2023-01-06T03:14:41;101481.38;;;14.51;63.12
11395;BME280;5753;54.402;10.220;2023-01-06T03:17:09;101466.69;;;14.54;62.85
11395;BME280;5753;54.402;10.220;2023-01-06T03:19:36;101486.06;;;13.43;66.19
11395;BME280;5753;54.402;10.220;2023-01-06T03:22:02;101467.84;;;14.82;63.58
11395;BME280;5753;54.402;10.220;2023-01-06T03:24:29;101469.56;;;14.83;62.51
11395;BME280;5753;54.402;10.220;2023-01-06T03:26:55;101466.44;;;15.27;61.89
11395;BME280;5753;54.402;10.220;2023-01-06T03:29:22;101452.59;;;14.28;64.71
11395;BME280;5753;54.402;10.220;2023-01-06T03:31:52;101452.41;;;15.00;62.66
11395;BME280;5753;54.402;10.220;2023-01-06T03:42:39;101433.81;;;14.53;64.63
11395;BME280;5753;54.402;10.220;2023-01-06T03:54:09;101419.22;;;14.66;64.45
11395;BME280;5753;54.402;10.220;2023-01-06T03:59:25;101407.03;;;16.01;60.47
11395;BME280;5753;54.402;10.220;2023-01-06T04:01:53;101397.41;;;15.65;60.38
11395;BME280;5753;54.402;10.220;2023-01-06T04:04:19;101401.63;;;15.48;61.91
11395;BME280;5753;54.402;10.220;2023-01-06T04:06:45;101398.72;;;14.96;63.43
11395;BME280;5753;54.402;10.220;2023-01-06T04:09:11;101390.38;;;15.54;61.98
11395;BME280;5753;54.402;10.220;2023-01-06T04:11:38;101393.56;;;14.07;68.41
11395;BME280;5753;54.402;10.220;2023-01-06T04:14:36;101384.25;;;15.35;64.08
11395;BME280;5753;54.402;10.220;2023-01-06T04:17:02;101385.38;;;16.07;61.96
11395;BME280;5753;54.402;10.220;2023-01-06T04:19:28;101378.38;;;15.68;62.96
11395;BME280;5753;54.402;10.220;2023-01-06T04:21:54;101376.78;;;16.26;61.27
11395;BME280;5753;54.402;10.220;2023-01-06T04:24:20;101382.38;;;15.11;65.05
11395;BME280;5753;54.402;10.220;2023-01-06T04:26:46;101367.78;;;15.33;65.06
11395;BME280;5753;54.402;10.220;2023-01-06T04:29:12;101354.22;;;16.22;61.59
11395;BME280;5753;54.402;10.220;2023-01-06T04:31:39;101350.53;;;15.50;63.37
11395;BME280;5753;54.402;10.220;2023-01-06T04:34:05;101341.88;;;15.56;64.38
11395;BME280;5753;54.402;10.220;2023-01-06T04:36:31;101352.72;;;14.71;68.52
11395;BME280;5753;54.402;10.220;2023-01-06T04:38:57;101349.88;;;16.14;62.60
11395;BME280;5753;54.402;10.220;2023-01-06T04:41:23;101347.59;;;14.85;67.90
11395;BME280;5753;54.402;10.220;2023-01-06T04:43:49;101345.25;;;15.24;64.63
11395;BME280;5753;54.402;10.220;2023-01-06T04:46:15;101341.91;;;15.57;65.25
11395;BME280;5753;54.402;10.220;2023-01-06T04:48:41;101324.75;;;16.22;62.12
11395;BME280;5753;54.402;10.220;2023-01-06T04:51:09;101332.56;;;16.25;61.30
11395;BME280;5753;54.402;10.220;2023-01-06T04:53:37;101321.94;;;15.50;63.81
11395;BME280;5753;54.402;10.220;2023-01-06T04:56:09;101320.41;;;16.45;61.88
11395;BME280;5753;54.402;10.220;2023-01-06T04:58:36;101310.88;;;16.12;62.93
11395;BME280;5753;54.402;10.220;2023-01-06T05:01:05;101307.22;;;15.46;63.24
11395;BME280;5753;54.402;10.220;2023-01-06T05:03:32;101308.97;;;15.47;65.44
11395;BME280;5753;54.402;10.220;2023-01-06T05:06:10;101301.19;;;15.53;66.06
11395;BME280;5753;54.402;10.220;2023-01-06T05:08:41;101288.31;;;16.02;63.39
11395;BME280;5753;54.402;10.220;2023-01-06T05:11:11;101283.97;;;16.50;62.14
11395;BME280;5753;54.402;10.220;2023-01-06T05:13:37;101283.13;;;16.11;62.41
11395;BME280;5753;54.402;10.220;2023-01-06T05:16:14;101277.06;;;16.29;62.29
11395;BME280;5753;54.402;10.220;2023-01-06T05:18:41;101277.91;;;15.84;62.95
11395;BME280;5753;54.402;10.220;2023-01-06T05:21:07;101264.03;;;16.36;62.94
11395;BME280;5753;54.402;10.220;2023-01-06T05:23:35;101262.31;;;16.08;63.45
11395;BME280;5753;54.402;10.220;2023-01-06T05:26:01;101260.56;;;16.37;62.72
11395;BME280;5753;54.402;10.220;2023-01-06T05:28:28;101253.63;;;15.82;63.04
11395;BME280;5753;54.402;10.220;2023-01-06T05:31:02;101259.72;;;16.29;63.20
11395;BME280;5753;54.402;10.220;2023-01-06T05:33:29;101242.31;;;16.51;61.53
11395;BME280;5753;54.402;10.220;2023-01-06T05:35:59;101239.78;;;15.95;65.29
11395;BME280;5753;54.402;10.220;2023-01-06T05:38:26;101236.31;;;16.03;65.18
11395;BME280;5753;54.402;10.220;2023-01-06T05:40:52;101231.97;;;16.04;64.26
11395;BME280;5753;54.402;10.220;2023-01-06T05:43:19;101235.03;;;14.66;70.00
11395;BME280;5753;54.402;10.220;2023-01-06T05:45:45;101232.84;;;15.63;67.56
11395;BME280;5753;54.402;10.220;2023-01-06T05:48:11;101238.78;;;15.36;68.97
11395;BME280;5753;54.402;10.220;2023-01-06T05:50:38;101230.81;;;14.86;70.00
11395;BME280;5753;54.402;10.220;2023-01-06T05:53:04;101233.56;;;16.95;63.71
11395;BME280;5753;54.402;10.220;2023-01-06T05:55:30;101246.72;;;15.85;65.66
11395;BME280;5753;54.402;10.220;2023-01-06T05:57:56;101225.88;;;16.42;65.07
11395;BME280;5753;54.402;10.220;2023-01-06T06:00:22;101218.06;;;16.38;65.56
11395;BME280;5753;54.402;10.220;2023-01-06T06:02:48;101220.72;;;15.96;66.89
11395;BME280;5753;54.402;10.220;2023-01-06T06:05:14;101208.53;;;16.39;66.75
11395;BME280;5753;54.402;10.220;2023-01-06T06:07:40;101216.38;;;16.16;66.86
11395;BME280;5753;54.402;10.220;2023-01-06T06:10:07;101207.72;;;16.19;67.34
11395;BME280;5753;54.402;10.220;2023-01-06T06:12:34;101201.53;;;16.55;64.94
11395;BME280;5753;54.402;10.220;2023-01-06T06:15:00;101201.53;;;16.76;64.58
11395;BME280;5753;54.402;10.220;2023-01-06T06:17:26;101187.53;;;16.95;63.76
11395;BME280;5753;54.402;10.220;2023-01-06T06:19:52;101199.03;;;16.18;65.52
11395;BME280;5753;54.402;10.220;2023-01-06T06:22:19;101181.72;;;16.13;67.24
11395;BME280;5753;54.402;10.220;2023-01-06T06:24:45;101198.97;;;15.36;71.63
11395;BME280;5753;54.402;10.220;2023-01-06T06:27:11;101198.09;;;16.59;66.82
11395;BME280;5753;54.402;10.220;2023-01-06T06:29:37;101197.22;;;16.54;68.23
11395;BME280;5753;54.402;10.220;2023-01-06T06:32:04;101191.22;;;16.29;68.21
11395;BME280;5753;54.402;10.220;2023-01-06T06:34:30;101186.88;;;16.31;69.02
11395;BME280;5753;54.402;10.220;2023-01-06T06:36:56;101181.59;;;16.52;68.02
11395;BME280;5753;54.402;10.220;2023-01-06T06:39:22;101182.31;;;17.05;65.58
11395;BME280;5753;54.402;10.220;2023-01-06T06:41:48;101182.47;;;16.50;68.90
11395;BME280;5753;54.402;10.220;2023-01-06T06:44:14;101183.22;;;16.94;67.44
11395;BME280;5753;54.402;10.220;2023-01-06T06:46:40;101183.84;;;17.38;65.51
11395;BME280;5753;54.402;10.220;2023-01-06T06:49:06;101186.03;;;16.18;69.25
11395;BME280;5753;54.402;10.220;2023-01-06T06:51:32;101181.34;;;17.19;67.11
11395;BME280;5753;54.402;10.220;2023-01-06T06:53:58;101181.50;;;16.92;66.61
11395;BME280;5753;54.402;10.220;2023-01-06T06:56:24;101163.22;;;16.99;66.81
11395;BME280;5753;54.402;10.220;2023-01-06T06:58:51;101168.00;;;17.70;65.68
11395;BME280;5753;54.402;10.220;2023-01-06T07:01:18;101156.38;;;16.83;68.61
11395;BME280;5753;54.402;10.220;2023-01-06T07:03:45;101157.44;;;16.14;71.96
11395;BME280;5753;54.402;10.220;2023-01-06T07:06:20;101150.28;;;18.08;64.87
11395;BME280;5753;54.402;10.220;2023-01-06T07:08:48;101138.16;;;18.04;64.55
11395;BME280;5753;54.402;10.220;2023-01-06T07:11:14;101126.44;;;17.45;67.19
11395;BME280;5753;54.402;10.220;2023-01-06T07:13:41;101125.75;;;17.22;68.62
11395;BME280;5753;54.402;10.220;2023-01-06T07:16:07;101118.13;;;16.91;71.11
11395;BME280;5753;54.402;10.220;2023-01-06T07:18:33;101121.13;;;17.67;69.00
11395;BME280;5753;54.402;10.220;2023-01-06T07:21:00;101123.00;;;17.40;71.16
11395;BME280;5753;54.402;10.220;2023-01-06T07:23:26;101121.66;;;16.81;71.11
11395;BME280;5753;54.402;10.220;2023-01-06T07:25:53;101101.34;;;18.29;65.46
11395;BME280;5753;54.402;10.220;2023-01-06T07:28:20;101108.91;;;17.66;68.59
11395;BME280;5753;54.402;10.220;2023-01-06T07:30:46;101113.69;;;18.16;66.85
11395;BME280;5753;54.402;10.220;2023-01-06T07:33:12;101107.47;;;18.26;65.10
11395;BME280;5753;54.402;10.220;2023-01-06T07:35:38;101091.22;;;16.92;71.25
11395;BME280;5753;54.402;10.220;2023-01-06T07:38:06;101100.00;;;17.92;67.45
11395;BME280;5753;54.402;10.220;2023-01-06T07:40:32;101100.47;;;17.36;70.44
11395;BME280;5753;54.402;10.220;2023-01-06T07:43:03;101090.28;;;17.09;71.58
11395;BME280;5753;54.402;10.220;2023-01-06T07:45:30;101090.25;;;17.12;70.08
11395;BME280;5753;54.402;10.220;2023-01-06T07:47:56;101093.28;;;16.20;78.58
11395;BME280;5753;54.402;10.220;2023-01-06T07:50:22;101083.06;;;17.40;71.41
11395;BME280;5753;54.402;10.220;2023-01-06T07:52:48;101076.72;;;16.36;77.85
11395;BME280;5753;54.402;10.220;2023-01-06T07:55:14;101077.53;;;16.46;79.23
11395;BME280;5753;54.402;10.220;2023-01-06T07:57:41;101062.56;;;16.92;75.17
11395;BME280;5753;54.402;10.220;2023-01-06T08:00:07;101067.81;;;16.89;73.38
11395;BME280;5753;54.402;10.220;2023-01-06T08:02:33;101070.72;;;16.21;78.59
11395;BME280;5753;54.402;10.220;2023-01-06T08:05:00;101070.34;;;17.05;73.68
11395;BME280;5753;54.402;10.220;2023-01-06T08:07:26;101057.00;;;17.41;71.86
11395;BME280;5753;54.402;10.220;2023-01-06T08:09:52;101063.41;;;16.99;71.66
11395;BME280;5753;54.402;10.220;2023-01-06T08:12:18;101051.88;;;17.32;72.80
11395;BME280;5753;54.402;10.220;2023-01-06T08:14:44;101060.53;;;17.34;74.23
11395;BME280;5753;54.402;10.220;2023-01-06T08:17:10;101044.91;;;17.33;73.85
11395;BME280;5753;54.402;10.220;2023-01-06T08:19:36;101056.78;;;16.34;78.30
11395;BME280;5753;54.402;10.220;2023-01-06T08:22:03;101047.09;;;16.65;77.28
11395;BME280;5753;54.402;10.220;2023-01-06T08:24:29;101054.06;;;16.69;75.81
11395;BME280;5753;54.402;10.220;2023-01-06T08:26:58;101055.78;;;17.82;72.17
11395;BME280;5753;54.402;10.220;2023-01-06T08:29:25;101048.94;;;16.45;76.97
11395;BME280;5753;54.402;10.220;2023-01-06T08:31:51;101053.88;;;16.93;73.40
11395;BME280;5753;54.402;10.220;2023-01-06T08:34:18;101047.25;;;16.34;75.47
11395;BME280;5753;54.402;10.220;2023-01-06T08:36:44;101045.03;;;17.19;75.05
11395;BME280;5753;54.402;10.220;2023-01-06T08:39:12;101039.41;;;18.41;69.18
11395;BME280;5753;54.402;10.220;2023-01-06T08:41:38;101035.47;;;17.22;73.75
11395;BME280;5753;54.402;10.220;2023-01-06T08:44:05;101038.81;;;15.62;83.08
11395;BME280;5753;54.402;10.220;2023-01-06T08:46:32;101035.09;;;16.40;82.36
11395;BME280;5753;54.402;10.220;2023-01-06T08:48:58;101043.03;;;16.01;81.43
11395;BME280;5753;54.402;10.220;2023-01-06T08:51:25;101033.34;;;16.42;83.79
11395;BME280;5753;54.402;10.220;2023-01-06T08:53:52;101033.59;;;15.44;87.24
11395;BME280;5753;54.402;10.220;2023-01-06T08:56:24;101042.50;;;17.10;75.37
11395;BME280;5753;54.402;10.220;2023-01-06T08:58:59;101030.88;;;16.03;80.38
11395;BME280;5753;54.402;10.220;2023-01-06T09:01:28;101025.38;;;17.79;72.39
11395;BME280;5753;54.402;10.220;2023-01-06T09:03:56;101024.41;;;17.88;71.29
11395;BME280;5753;54.402;10.220;2023-01-06T09:06:23;101027.81;;;16.96;77.90
11395;BME280;5753;54.402;10.220;2023-01-06T09:08:49;101037.94;;;15.63;84.67
11395;BME280;5753;54.402;10.220;2023-01-06T09:11:16;101033.03;;;16.96;78.22
11395;BME280;5753;54.402;10.220;2023-01-06T09:13:42;101037.03;;;15.84;80.94
11395;BME280;5753;54.402;10.220;2023-01-06T09:16:10;101037.56;;;16.72;80.36
11395;BME280;5753;54.402;10.220;2023-01-06T09:18:37;101032.41;;;16.50;81.02
11395;BME280;5753;54.402;10.220;2023-01-06T09:21:04;101027.19;;;16.67;81.04
11395;BME280;5753;54.402;10.220;2023-01-06T09:23:30;101030.13;;;15.08;87.82
11395;BME280;5753;54.402;10.220;2023-01-06T09:25:57;101021.22;;;16.41;81.03
11395;BME280;5753;54.402;10.220;2023-01-06T09:28:24;101015.16;;;16.38;80.23
11395;BME280;5753;54.402;10.220;2023-01-06T09:30:51;101017.78;;;17.56;74.67
11395;BME280;5753;54.402;10.220;2023-01-06T09:33:17;101022.13;;;16.30;82.43
11395;BME280;5753;54.402;10.220;2023-01-06T09:35:44;101025.75;;;17.38;75.34
11395;BME280;5753;54.402;10.220;2023-01-06T09:38:11;101012.41;;;16.64;79.49
11395;BME280;5753;54.402;10.220;2023-01-06T09:41:00;101017.56;;;16.78;78.72
11395;BME280;5753;54.402;10.220;2023-01-06T09:43:50;101011.88;;;17.36;74.98
11395;BME280;5753;54.402;10.220;2023-01-06T09:46:25;101011.06;;;15.78;82.20
11395;BME280;5753;54.402;10.220;2023-01-06T09:51:44;101029.22;;;15.87;86.71
11395;BME280;5753;54.402;10.220;2023-01-06T09:54:34;101028.97;;;16.50;84.08
11395;BME280;5753;54.402;10.220;2023-01-06T09:57:14;101040.34;;;14.40;95.58
11395;BME280;5753;54.402;10.220;2023-01-06T09:59:51;101050.94;;;15.69;88.58
11395;BME280;5753;54.402;10.220;2023-01-06T10:02:45;101040.50;;;15.82;89.05
11395;BME280;5753;54.402;10.220;2023-01-06T10:05:33;101064.72;;;14.95;91.47
11395;BME280;5753;54.402;10.220;2023-01-06T10:10:49;101089.88;;;15.28;96.72
11395;BME280;5753;54.402;10.220;2023-01-06T10:13:31;101090.03;;;13.64;100.00
11395;BME280;5753;54.402;10.220;2023-01-06T10:16:19;101080.09;;;14.37;100.00
11395;BME280;5753;54.402;10.220;2023-01-06T10:25:05;101105.63;;;13.70;100.00
11395;BME280;5753;54.402;10.220;2023-01-06T10:27:38;101102.06;;;13.56;100.00
11395;BME280;5753;54.402;10.220;2023-01-06T10:30:26;101111.56;;;15.74;91.46
11395;BME280;5753;54.402;10.220;2023-01-06T10:32:54;101117.28;;;14.36;91.58
11395;BME280;5753;54.402;10.220;2023-01-06T10:35:24;101125.84;;;14.22;95.06
11395;BME280;5753;54.402;10.220;2023-01-06T10:37:52;101131.34;;;14.84;86.58
11395;BME280;5753;54.402;10.220;2023-01-06T10:40:24;101132.22;;;15.03;83.26
11395;BME280;5753;54.402;10.220;2023-01-06T10:43:03;101129.69;;;15.27;80.35
11395;BME280;5753;54.402;10.220;2023-01-06T10:48:02;101132.28;;;15.14;79.92
11395;BME280;5753;54.402;10.220;2023-01-06T10:50:29;101143.56;;;16.07;73.98
11395;BME280;5753;54.402;10.220;2023-01-06T10:52:55;101159.91;;;14.93;79.86
11395;BME280;5753;54.402;10.220;2023-01-06T11:00:54;101161.78;;;15.86;72.09
11395;BME280;5753;54.402;10.220;2023-01-06T11:03:21;101152.94;;;16.77;67.16
11395;BME280;5753;54.402;10.220;2023-01-06T11:05:47;101151.88;;;18.21;64.23
11395;BME280;5753;54.402;10.220;2023-01-06T11:08:23;101157.44;;;15.91;69.62
11395;BME280;5753;54.402;10.220;2023-01-06T11:10:50;101156.34;;;16.88;64.02
11395;BME280;5753;54.402;10.220;2023-01-06T11:15:53;101160.84;;;16.34;65.00
11395;BME280;5753;54.402;10.220;2023-01-06T11:18:26;101163.38;;;16.54;65.57
11395;BME280;5753;54.402;10.220;2023-01-06T11:21:09;101172.13;;;16.28;66.78
11395;BME280;5753;54.402;10.220;2023-01-06T11:23:38;101184.34;;;15.62;66.10
11395;BME280;5753;54.402;10.220;2023-01-06T11:26:14;101191.25;;;15.88;65.66
11395;BME280;5753;54.402;10.220;2023-01-06T11:28:42;101173.06;;;15.76;65.58
11395;BME280;5753;54.402;10.220;2023-01-06T11:31:16;101180.72;;;16.55;62.60
11395;BME280;5753;54.402;10.220;2023-01-06T11:33:56;101182.53;;;15.40;65.49
11395;BME280;5753;54.402;10.220;2023-01-06T11:36:27;101177.28;;;16.59;60.87
11395;BME280;5753;54.402;10.220;2023-01-06T11:39:03;101161.75;;;16.25;61.96
11395;BME280;5753;54.402;10.220;2023-01-06T11:41:43;101183.84;;;17.36;56.98
11395;BME280;5753;54.402;10.220;2023-01-06T11:44:30;101174.56;;;16.91;58.70
11395;BME280;5753;54.402;10.220;2023-01-06T11:47:45;101183.34;;;16.59;59.25
11395;BME280;5753;54.402;10.220;2023-01-06T11:49:52;101180.88;;;15.76;62.12
11395;BME280;5753;54.402;10.220;2023-01-06T11:55:19;101182.56;;;15.58;68.13
11395;BME280;5753;54.402;10.220;2023-01-06T11:58:10;101178.75;;;14.49;71.65
11395;BME280;5753;54.402;10.220;2023-01-06T12:06:06;101173.06;;;15.76;62.76
11395;BME280;5753;54.402;10.220;2023-01-06T12:13:53;101180.00;;;16.09;62.86
11395;BME280;5753;54.402;10.220;2023-01-06T12:16:27;101194.72;;;15.78;64.17
11395;BME280;5753;54.402;10.220;2023-01-06T12:18:59;101205.66;;;14.70;66.92
11395;BME280;5753;54.402;10.220;2023-01-06T12:21:29;101218.63;;;14.67;66.88
11395;BME280;5753;54.402;10.220;2023-01-06T12:23:59;101212.69;;;14.98;64.80
11395;BME280;5753;54.402;10.220;2023-01-06T12:26:27;101215.38;;;15.14;63.62
11395;BME280;5753;54.402;10.220;2023-01-06T12:28:57;101217.22;;;15.60;63.99
11395;BME280;5753;54.402;10.220;2023-01-06T12:34:41;101227.25;;;14.66;63.21
11395;BME280;5753;54.402;10.220;2023-01-06T12:42:36;101224.56;;;14.52;63.76
11395;BME280;5753;54.402;10.220;2023-01-06T12:47:51;101236.78;;;14.68;65.53
11395;BME280;5753;54.402;10.220;2023-01-06T12:53:10;101248.94;;;14.74;62.79
11395;BME280;5753;54.402;10.220;2023-01-06T12:58:19;101271.59;;;13.89;64.14
11395;BME280;5753;54.402;10.220;2023-01-06T13:00:53;101272.47;;;13.89;64.87
11395;BME280;5753;54.402;10.220;2023-01-06T13:14:24;101288.16;;;15.41;60.71
11395;BME280;5753;54.402;10.220;2023-01-06T13:17:45;101295.22;;;15.76;61.13
11395;BME280;5753;54.402;10.220;2023-01-06T13:19:56;101292.63;;;15.71;61.01
11395;BME280;5753;54.402;10.220;2023-01-06T13:27:45;101303.75;;;15.49;62.18
11395;BME280;5753;54.402;10.220;2023-01-06T13:35:37;101326.25;;;15.39;62.04
11395;BME280;5753;54.402;10.220;2023-01-06T13:40:57;101325.50;;;15.61;60.23
11395;BME280;5753;54.402;10.220;2023-01-06T13:43:28;101337.03;;;14.60;63.54
11395;BME280;5753;54.402;10.220;2023-01-06T13:45:58;101331.47;;;15.47;62.29
11395;BME280;5753;54.402;10.220;2023-01-06T13:48:29;101334.94;;;15.53;60.88
11395;BME280;5753;54.402;10.220;2023-01-06T13:50:59;101342.03;;;15.91;58.96
11395;BME280;5753;54.402;10.220;2023-01-06T13:53:27;101326.34;;;15.60;59.04
11395;BME280;5753;54.402;10.220;2023-01-06T13:58:40;101334.38;;;14.49;63.73
11395;BME280;5753;54.402;10.220;2023-01-06T14:01:09;101328.84;;;15.40;60.83
11395;BME280;5753;54.402;10.220;2023-01-06T14:03:38;101332.91;;;14.88;61.84
11395;BME280;5753;54.402;10.220;2023-01-06T14:06:08;101329.09;;;14.40;66.34
11395;BME280;5753;54.402;10.220;2023-01-06T14:08:38;101345.94;;;13.23;68.66
11395;BME280;5753;54.402;10.220;2023-01-06T14:13:52;101350.53;;;14.20;67.68
11395;BME280;5753;54.402;10.220;2023-01-06T14:16:19;101350.22;;;14.89;65.46
11395;BME280;5753;54.402;10.220;2023-01-06T14:21:34;101355.31;;;13.81;70.61
11395;BME280;5753;54.402;10.220;2023-01-06T14:29:43;101364.16;;;15.03;67.26
11395;BME280;5753;54.402;10.220;2023-01-06T14:34:58;101377.78;;;14.72;68.98
11395;BME280;5753;54.402;10.220;2023-01-06T14:37:45;101376.19;;;14.92;66.98
11395;BME280;5753;54.402;10.220;2023-01-06T14:40:19;101373.47;;;13.84;71.02
11395;BME280;5753;54.402;10.220;2023-01-06T14:42:46;101390.56;;;13.70;72.10
11395;BME280;5753;54.402;10.220;2023-01-06T14:45:17;101385.03;;;13.40;72.53
11395;BME280;5753;54.402;10.220;2023-01-06T14:47:51;101382.75;;;15.87;65.00
11395;BME280;5753;54.402;10.220;2023-01-06T14:50:53;101397.97;;;14.15;67.94
11395;BME280;5753;54.402;10.220;2023-01-06T14:53:26;101401.50;;;15.25;64.99
11395;BME280;5753;54.402;10.220;2023-01-06T14:55:54;101394.00;;;14.48;69.01
11395;BME280;5753;54.402;10.220;2023-01-06T14:58:33;101395.31;;;13.34;72.42
11395;BME280;5753;54.402;10.220;2023-01-06T15:01:02;101391.94;;;13.41;73.90
11395;BME280;5753;54.402;10.220;2023-01-06T15:03:29;101393.81;;;13.54;73.61
11395;BME280;5753;54.402;10.220;2023-01-06T15:06:31;101401.06;;;14.66;67.50
11395;BME280;5753;54.402;10.220;2023-01-06T15:09:19;101392.69;;;15.00;65.69
11395;BME280;5753;54.402;10.220;2023-01-06T15:11:45;101393.47;;;13.96;71.47
11395;BME280;5753;54.402;10.220;2023-01-06T15:14:32;101394.50;;;14.12;69.11
11395;BME280;5753;54.402;10.220;2023-01-06T15:17:01;101390.81;;;14.78;68.86
11395;BME280;5753;54.402;10.220;2023-01-06T15:19:29;101386.00;;;14.25;69.85
11395;BME280;5753;54.402;10.220;2023-01-06T15:21:57;101404.88;;;14.15;70.25
11395;BME280;5753;54.402;10.220;2023-01-06T15:24:29;101398.19;;;13.58;71.47
11395;BME280;5753;54.402;10.220;2023-01-06T15:27:06;101407.19;;;14.71;66.65
11395;BME280;5753;54.402;10.220;2023-01-06T15:29:33;101407.22;;;14.72;65.99
11395;BME280;5753;54.402;10.220;2023-01-06T15:32:00;101412.91;;;13.62;69.53